sensor_id;sensor_type;location;lat;lon;timestamp;P1;durP1;ratioP1;P2;durP2;ratioP2
9773;SDS011;4926;42.670;23.316;2023-10-08T00:02:45;8.23;;;5.93;;
9773;SDS011;4926;42.670;23.316;2023-10-08T00:05:15;11.20;;;6.57;;
9773;SDS011;4926;42.670;23.316;2023-10-08T00:07:42;9.02;;;5.72;;
9773;SDS011;4926;42.670;23.316;2023-10-08T00:10:11;10.18;;;5.93;;
9773;SDS011;4926;42.670;23.316;2023-10-08T00:12:38;9.20;;;5.95;;
9773;SDS011;4926;42.670;23.316;2023-10-08T00:15:10;9.65;;;5.90;;
9773;SDS011;4926;42.670;23.316;2023-10-08T00:17:37;12.63;;;6.30;;
9773;SDS011;4926;42.670;23.316;2023-10-08T00:20:04;12.35;;;5.88;;
9773;SDS011;4926;42.670;23.316;2023-10-08T00:22:33;9.10;;;6.10;;
9773;SDS011;4926;42.670;23.316;2023-10-08T00:25:01;10.85;;;5.60;;
9773;SDS011;4926;42.670;23.316;2023-10-08T00:27:38;10.13;;;6.38;;
9773;SDS011;4926;42.670;23.316;2023-10-08T00:30:06;11.10;;;6.32;;
9773;SDS011;4926;42.670;23.316;2023-10-08T00:32:42;8.20;;;5.40;;
9773;SDS011;4926;42.670;23.316;2023-10-08T00:35:12;11.25;;;6.57;;
9773;SDS011;4926;42.670;23.316;2023-10-08T00:37:39;8.57;;;5.88;;
9773;SDS011;4926;42.670;23.316;2023-10-08T00:40:09;9.70;;;6.07;;
9773;SDS011;4926;42.670;23.316;2023-10-08T00:42:40;9.10;;;6.13;;
9773;SDS011;4926;42.670;23.316;2023-10-08T00:45:11;9.80;;;6.00;;
9773;SDS011;4926;42.670;23.316;2023-10-08T00:47:39;9.77;;;5.78;;
9773;SDS011;4926;42.670;23.316;2023-10-08T00:50:08;11.77;;;5.75;;
9773;SDS011;4926;42.670;23.316;2023-10-08T00:52:45;8.88;;;5.38;;
9773;SDS011;4926;42.670;23.316;2023-10-08T00:55:22;8.57;;;5.32;;
9773;SDS011;4926;42.670;23.316;2023-10-08T00:57:56;10.25;;;6.18;;
9773;SDS011;4926;42.670;23.316;2023-10-08T01:00:33;9.05;;;6.13;;
9773;SDS011;4926;42.670;23.316;2023-10-08T01:03:06;12.02;;;5.82;;
9773;SDS011;4926;42.670;23.316;2023-10-08T01:05:40;9.35;;;6.13;;
9773;SDS011;4926;42.670;23.316;2023-10-08T01:08:15;10.95;;;5.63;;
9773;SDS011;4926;42.670;23.316;2023-10-08T01:10:48;10.93;;;6.05;;
9773;SDS011;4926;42.670;23.316;2023-10-08T01:13:26;7.93;;;5.47;;
9773;SDS011;4926;42.670;23.316;2023-10-08T01:16:01;10.32;;;6.00;;
9773;SDS011;4926;42.670;23.316;2023-10-08T01:18:31;9.05;;;5.88;;
9773;SDS011;4926;42.670;23.316;2023-10-08T01:21:00;7.00;;;5.13;;
9773;SDS011;4926;42.670;23.316;2023-10-08T01:23:34;10.75;;;5.95;;
9773;SDS011;4926;42.670;23.316;2023-10-08T01:26:04;13.98;;;6.60;;
9773;SDS011;4926;42.670;23.316;2023-10-08T01:28:36;6.78;;;5.30;;
9773;SDS011;4926;42.670;23.316;2023-10-08T01:31:03;10.48;;;5.80;;
9773;SDS011;4926;42.670;23.316;2023-10-08T01:33:31;9.40;;;5.50;;
9773;SDS011;4926;42.670;23.316;2023-10-08T01:36:03;7.85;;;5.57;;
9773;SDS011;4926;42.670;23.316;2023-10-08T01:38:38;8.93;;;5.55;;
9773;SDS011;4926;42.670;23.316;2023-10-08T01:41:06;7.72;;;5.53;;
9773;SDS011;4926;42.670;23.316;2023-10-08T01:43:43;9.07;;;5.95;;
9773;SDS011;4926;42.670;23.316;2023-10-08T01:46:12;9.38;;;5.35;;
9773;SDS011;4926;42.670;23.316;2023-10-08T01:48:41;9.93;;;5.20;;
9773;SDS011;4926;42.670;23.316;2023-10-08T01:51:10;8.88;;;4.97;;
9773;SDS011;4926;42.670;23.316;2023-10-08T01:53:51;9.20;;;5.35;;
9773;SDS011;4926;42.670;23.316;2023-10-08T01:56:19;8.00;;;5.15;;
9773;SDS011;4926;42.670;23.316;2023-10-08T01:58:46;8.20;;;4.65;;
9773;SDS011;4926;42.670;23.316;2023-10-08T02:01:12;8.40;;;4.95;;
9773;SDS011;4926;42.670;23.316;2023-10-08T02:03:44;6.50;;;4.90;;
9773;SDS011;4926;42.670;23.316;2023-10-08T02:06:11;6.97;;;5.43;;
9773;SDS011;4926;42.670;23.316;2023-10-08T02:08:37;8.73;;;5.07;;
9773;SDS011;4926;42.670;23.316;2023-10-08T02:11:06;8.45;;;5.78;;
9773;SDS011;4926;42.670;23.316;2023-10-08T02:13:33;8.93;;;5.40;;
9773;SDS011;4926;42.670;23.316;2023-10-08T02:16:02;8.40;;;5.50;;
9773;SDS011;4926;42.670;23.316;2023-10-08T02:18:28;9.05;;;5.35;;
9773;SDS011;4926;42.670;23.316;2023-10-08T02:20:58;8.73;;;5.28;;
9773;SDS011;4926;42.670;23.316;2023-10-08T02:23:25;9.85;;;5.30;;
9773;SDS011;4926;42.670;23.316;2023-10-08T02:25:53;8.60;;;5.00;;
9773;SDS011;4926;42.670;23.316;2023-10-08T02:28:23;7.00;;;4.57;;
9773;SDS011;4926;42.670;23.316;2023-10-08T02:30:50;7.32;;;4.80;;
9773;SDS011;4926;42.670;23.316;2023-10-08T02:33:21;8.43;;;5.10;;
9773;SDS011;4926;42.670;23.316;2023-10-08T02:35:47;9.57;;;5.05;;
9773;SDS011;4926;42.670;23.316;2023-10-08T02:38:16;8.98;;;5.10;;
9773;SDS011;4926;42.670;23.316;2023-10-08T02:40:43;8.90;;;5.43;;
9773;SDS011;4926;42.670;23.316;2023-10-08T02:43:11;9.93;;;4.85;;
9773;SDS011;4926;42.670;23.316;2023-10-08T02:45:41;8.57;;;5.05;;
9773;SDS011;4926;42.670;23.316;2023-10-08T02:48:15;8.55;;;5.10;;
9773;SDS011;4926;42.670;23.316;2023-10-08T02:50:43;8.23;;;4.45;;
9773;SDS011;4926;42.670;23.316;2023-10-08T02:53:13;7.00;;;4.50;;
9773;SDS011;4926;42.670;23.316;2023-10-08T02:55:45;8.13;;;4.50;;
9773;SDS011;4926;42.670;23.316;2023-10-08T02:58:14;7.93;;;5.15;;
9773;SDS011;4926;42.670;23.316;2023-10-08T03:00:45;7.57;;;5.03;;
9773;SDS011;4926;42.670;23.316;2023-10-08T03:03:14;7.82;;;5.25;;
9773;SDS011;4926;42.670;23.316;2023-10-08T03:05:48;8.32;;;5.13;;
9773;SDS011;4926;42.670;23.316;2023-10-08T03:08:17;10.85;;;5.25;;
9773;SDS011;4926;42.670;23.316;2023-10-08T03:10:46;8.30;;;5.07;;
9773;SDS011;4926;42.670;23.316;2023-10-08T03:13:13;9.15;;;5.22;;
9773;SDS011;4926;42.670;23.316;2023-10-08T03:15:46;7.15;;;4.65;;
9773;SDS011;4926;42.670;23.316;2023-10-08T03:18:23;7.53;;;5.47;;
9773;SDS011;4926;42.670;23.316;2023-10-08T03:20:50;10.85;;;5.13;;
9773;SDS011;4926;42.670;23.316;2023-10-08T03:23:20;10.07;;;5.45;;
9773;SDS011;4926;42.670;23.316;2023-10-08T03:25:58;9.70;;;5.15;;
9773;SDS011;4926;42.670;23.316;2023-10-08T03:28:27;8.45;;;4.78;;
9773;SDS011;4926;42.670;23.316;2023-10-08T03:31:01;7.45;;;5.00;;
9773;SDS011;4926;42.670;23.316;2023-10-08T03:33:37;6.25;;;4.47;;
9773;SDS011;4926;42.670;23.316;2023-10-08T03:36:05;8.35;;;5.70;;
9773;SDS011;4926;42.670;23.316;2023-10-08T03:38:39;8.90;;;5.40;;
9773;SDS011;4926;42.670;23.316;2023-10-08T03:41:16;9.32;;;4.90;;
9773;SDS011;4926;42.670;23.316;2023-10-08T03:43:45;7.93;;;5.22;;
9773;SDS011;4926;42.670;23.316;2023-10-08T03:46:30;8.35;;;5.47;;
9773;SDS011;4926;42.670;23.316;2023-10-08T03:49:04;7.07;;;4.90;;
9773;SDS011;4926;42.670;23.316;2023-10-08T03:51:39;11.57;;;5.10;;
9773;SDS011;4926;42.670;23.316;2023-10-08T03:54:07;9.13;;;4.90;;
9773;SDS011;4926;42.670;23.316;2023-10-08T03:56:43;10.10;;;5.10;;
9773;SDS011;4926;42.670;23.316;2023-10-08T03:59:13;7.47;;;4.80;;
9773;SDS011;4926;42.670;23.316;2023-10-08T04:01:50;10.00;;;5.53;;
9773;SDS011;4926;42.670;23.316;2023-10-08T04:04:20;6.65;;;4.72;;
9773;SDS011;4926;42.670;23.316;2023-10-08T04:06:55;8.77;;;5.57;;
9773;SDS011;4926;42.670;23.316;2023-10-08T04:09:43;8.27;;;5.38;;
9773;SDS011;4926;42.670;23.316;2023-10-08T04:12:10;9.02;;;5.20;;
9773;SDS011;4926;42.670;23.316;2023-10-08T04:14:36;9.00;;;5.03;;
9773;SDS011;4926;42.670;23.316;2023-10-08T04:17:08;7.25;;;5.22;;
9773;SDS011;4926;42.670;23.316;2023-10-08T04:19:36;8.52;;;4.97;;
9773;SDS011;4926;42.670;23.316;2023-10-08T04:22:06;7.45;;;5.32;;
9773;SDS011;4926;42.670;23.316;2023-10-08T04:24:40;7.25;;;5.10;;
9773;SDS011;4926;42.670;23.316;2023-10-08T04:27:09;10.30;;;5.38;;
9773;SDS011;4926;42.670;23.316;2023-10-08T04:29:36;8.88;;;5.30;;
9773;SDS011;4926;42.670;23.316;2023-10-08T04:32:05;10.38;;;5.63;;
9773;SDS011;4926;42.670;23.316;2023-10-08T04:34:37;10.00;;;5.53;;
9773;SDS011;4926;42.670;23.316;2023-10-08T04:37:12;7.68;;;4.97;;
9773;SDS011;4926;42.670;23.316;2023-10-08T04:39:45;10.20;;;5.57;;
9773;SDS011;4926;42.670;23.316;2023-10-08T04:42:19;7.22;;;4.95;;
9773;SDS011;4926;42.670;23.316;2023-10-08T04:44:51;8.02;;;4.85;;
9773;SDS011;4926;42.670;23.316;2023-10-08T04:47:24;8.15;;;5.68;;
9773;SDS011;4926;42.670;23.316;2023-10-08T04:50:00;13.23;;;5.30;;
9773;SDS011;4926;42.670;23.316;2023-10-08T04:52:31;9.90;;;5.90;;
9773;SDS011;4926;42.670;23.316;2023-10-08T04:55:10;8.43;;;5.22;;
9773;SDS011;4926;42.670;23.316;2023-10-08T04:57:45;9.55;;;5.38;;
9773;SDS011;4926;42.670;23.316;2023-10-08T05:00:14;9.82;;;6.47;;
9773;SDS011;4926;42.670;23.316;2023-10-08T05:02:43;8.48;;;5.45;;
9773;SDS011;4926;42.670;23.316;2023-10-08T05:05:15;13.63;;;6.05;;
9773;SDS011;4926;42.670;23.316;2023-10-08T05:07:48;7.95;;;4.97;;
9773;SDS011;4926;42.670;23.316;2023-10-08T05:10:42;9.43;;;5.55;;
9773;SDS011;4926;42.670;23.316;2023-10-08T05:13:26;8.65;;;5.68;;
9773;SDS011;4926;42.670;23.316;2023-10-08T05:15:58;12.65;;;5.43;;
9773;SDS011;4926;42.670;23.316;2023-10-08T05:18:52;8.32;;;5.65;;
9773;SDS011;4926;42.670;23.316;2023-10-08T05:21:39;8.38;;;5.70;;
9773;SDS011;4926;42.670;23.316;2023-10-08T05:24:17;13.45;;;6.40;;
9773;SDS011;4926;42.670;23.316;2023-10-08T05:26:53;10.82;;;6.45;;
9773;SDS011;4926;42.670;23.316;2023-10-08T05:29:44;9.68;;;6.05;;
9773;SDS011;4926;42.670;23.316;2023-10-08T05:32:39;9.48;;;6.15;;
9773;SDS011;4926;42.670;23.316;2023-10-08T05:35:35;10.55;;;5.88;;
9773;SDS011;4926;42.670;23.316;2023-10-08T05:38:15;8.88;;;6.00;;
9773;SDS011;4926;42.670;23.316;2023-10-08T05:40:48;11.55;;;6.20;;
9773;SDS011;4926;42.670;23.316;2023-10-08T05:43:52;9.50;;;5.70;;
9773;SDS011;4926;42.670;23.316;2023-10-08T05:46:37;9.57;;;6.07;;
9773;SDS011;4926;42.670;23.316;2023-10-08T05:49:22;8.85;;;5.80;;
9773;SDS011;4926;42.670;23.316;2023-10-08T05:52:07;8.98;;;5.55;;
9773;SDS011;4926;42.670;23.316;2023-10-08T05:54:53;11.48;;;5.80;;
9773;SDS011;4926;42.670;23.316;2023-10-08T05:57:37;9.95;;;5.82;;
9773;SDS011;4926;42.670;23.316;2023-10-08T06:00:12;11.73;;;5.82;;
9773;SDS011;4926;42.670;23.316;2023-10-08T06:02:56;9.98;;;5.90;;
9773;SDS011;4926;42.670;23.316;2023-10-08T06:06:00;10.98;;;5.85;;
9773;SDS011;4926;42.670;23.316;2023-10-08T06:08:49;10.23;;;6.47;;
9773;SDS011;4926;42.670;23.316;2023-10-08T06:11:48;10.30;;;6.60;;
9773;SDS011;4926;42.670;23.316;2023-10-08T06:14:33;13.60;;;6.05;;
9773;SDS011;4926;42.670;23.316;2023-10-08T06:17:18;11.35;;;6.53;;
9773;SDS011;4926;42.670;23.316;2023-10-08T06:20:20;12.32;;;8.07;;
9773;SDS011;4926;42.670;23.316;2023-10-08T06:22:50;12.80;;;7.53;;
9773;SDS011;4926;42.670;23.316;2023-10-08T06:25:24;14.77;;;7.05;;
9773;SDS011;4926;42.670;23.316;2023-10-08T06:27:56;10.80;;;6.72;;
9773;SDS011;4926;42.670;23.316;2023-10-08T06:30:23;17.05;;;7.82;;
9773;SDS011;4926;42.670;23.316;2023-10-08T06:32:59;9.57;;;6.75;;
9773;SDS011;4926;42.670;23.316;2023-10-08T06:35:26;11.77;;;6.22;;
9773;SDS011;4926;42.670;23.316;2023-10-08T06:37:54;14.13;;;6.53;;
9773;SDS011;4926;42.670;23.316;2023-10-08T06:40:24;15.13;;;6.90;;
9773;SDS011;4926;42.670;23.316;2023-10-08T06:43:11;15.02;;;7.93;;
9773;SDS011;4926;42.670;23.316;2023-10-08T06:45:40;16.00;;;7.47;;
9773;SDS011;4926;42.670;23.316;2023-10-08T06:48:10;15.73;;;7.68;;
9773;SDS011;4926;42.670;23.316;2023-10-08T06:50:44;14.38;;;7.30;;
9773;SDS011;4926;42.670;23.316;2023-10-08T06:53:11;10.77;;;7.28;;
9773;SDS011;4926;42.670;23.316;2023-10-08T06:55:40;11.40;;;7.10;;
9773;SDS011;4926;42.670;23.316;2023-10-08T06:58:10;16.13;;;7.07;;
9773;SDS011;4926;42.670;23.316;2023-10-08T07:00:39;10.38;;;6.85;;
9773;SDS011;4926;42.670;23.316;2023-10-08T07:03:14;11.40;;;7.20;;
9773;SDS011;4926;42.670;23.316;2023-10-08T07:05:46;11.10;;;7.05;;
9773;SDS011;4926;42.670;23.316;2023-10-08T07:08:23;13.80;;;6.97;;
9773;SDS011;4926;42.670;23.316;2023-10-08T07:10:50;11.00;;;6.65;;
9773;SDS011;4926;42.670;23.316;2023-10-08T07:13:19;12.40;;;7.03;;
9773;SDS011;4926;42.670;23.316;2023-10-08T07:15:48;11.30;;;6.97;;
9773;SDS011;4926;42.670;23.316;2023-10-08T07:18:15;12.70;;;6.82;;
9773;SDS011;4926;42.670;23.316;2023-10-08T07:20:50;8.52;;;6.63;;
9773;SDS011;4926;42.670;23.316;2023-10-08T07:23:19;12.10;;;6.88;;
9773;SDS011;4926;42.670;23.316;2023-10-08T07:25:53;15.02;;;7.20;;
9773;SDS011;4926;42.670;23.316;2023-10-08T07:28:29;12.25;;;7.18;;
9773;SDS011;4926;42.670;23.316;2023-10-08T07:30:58;15.38;;;8.50;;
9773;SDS011;4926;42.670;23.316;2023-10-08T07:33:27;12.23;;;6.97;;
9773;SDS011;4926;42.670;23.316;2023-10-08T07:36:01;13.10;;;7.60;;
9773;SDS011;4926;42.670;23.316;2023-10-08T07:38:37;13.85;;;7.50;;
9773;SDS011;4926;42.670;23.316;2023-10-08T07:41:04;12.73;;;7.05;;
9773;SDS011;4926;42.670;23.316;2023-10-08T07:43:33;13.27;;;7.97;;
9773;SDS011;4926;42.670;23.316;2023-10-08T07:46:00;11.70;;;6.90;;
9773;SDS011;4926;42.670;23.316;2023-10-08T07:48:27;12.90;;;6.70;;
9773;SDS011;4926;42.670;23.316;2023-10-08T07:50:56;11.50;;;6.63;;
9773;SDS011;4926;42.670;23.316;2023-10-08T07:53:25;12.90;;;6.25;;
9773;SDS011;4926;42.670;23.316;2023-10-08T07:56:03;13.55;;;6.70;;
9773;SDS011;4926;42.670;23.316;2023-10-08T07:58:31;10.32;;;5.75;;
9773;SDS011;4926;42.670;23.316;2023-10-08T08:01:02;10.15;;;6.07;;
9773;SDS011;4926;42.670;23.316;2023-10-08T08:03:31;8.93;;;4.00;;
9773;SDS011;4926;42.670;23.316;2023-10-08T08:06:02;17.50;;;5.80;;
9773;SDS011;4926;42.670;23.316;2023-10-08T08:08:31;6.00;;;3.70;;
9773;SDS011;4926;42.670;23.316;2023-10-08T08:10:58;6.35;;;4.03;;
9773;SDS011;4926;42.670;23.316;2023-10-08T08:13:30;7.15;;;4.13;;
9773;SDS011;4926;42.670;23.316;2023-10-08T08:16:00;7.97;;;4.05;;
9773;SDS011;4926;42.670;23.316;2023-10-08T08:18:35;11.07;;;4.18;;
9773;SDS011;4926;42.670;23.316;2023-10-08T08:21:03;5.72;;;3.85;;
9773;SDS011;4926;42.670;23.316;2023-10-08T08:23:40;8.60;;;4.05;;
9773;SDS011;4926;42.670;23.316;2023-10-08T08:26:15;6.05;;;4.07;;
9773;SDS011;4926;42.670;23.316;2023-10-08T08:28:53;5.20;;;3.75;;
9773;SDS011;4926;42.670;23.316;2023-10-08T08:31:23;8.50;;;4.22;;
9773;SDS011;4926;42.670;23.316;2023-10-08T08:33:56;7.22;;;4.13;;
9773;SDS011;4926;42.670;23.316;2023-10-08T08:36:27;6.00;;;4.05;;
9773;SDS011;4926;42.670;23.316;2023-10-08T08:38:57;10.40;;;4.30;;
9773;SDS011;4926;42.670;23.316;2023-10-08T08:41:33;5.35;;;3.85;;
9773;SDS011;4926;42.670;23.316;2023-10-08T08:44:03;9.25;;;4.05;;
9773;SDS011;4926;42.670;23.316;2023-10-08T08:46:34;8.43;;;4.03;;
9773;SDS011;4926;42.670;23.316;2023-10-08T08:49:02;8.63;;;4.22;;
9773;SDS011;4926;42.670;23.316;2023-10-08T08:51:30;7.10;;;3.90;;
9773;SDS011;4926;42.670;23.316;2023-10-08T08:53:57;6.72;;;4.28;;
9773;SDS011;4926;42.670;23.316;2023-10-08T08:56:35;7.40;;;4.32;;
9773;SDS011;4926;42.670;23.316;2023-10-08T08:59:04;8.20;;;4.18;;
9773;SDS011;4926;42.670;23.316;2023-10-08T09:01:31;7.30;;;4.30;;
9773;SDS011;4926;42.670;23.316;2023-10-08T09:04:04;9.70;;;4.30;;
9773;SDS011;4926;42.670;23.316;2023-10-08T09:06:37;7.65;;;4.35;;
9773;SDS011;4926;42.670;23.316;2023-10-08T09:09:04;5.95;;;4.30;;
9773;SDS011;4926;42.670;23.316;2023-10-08T09:11:47;7.45;;;4.15;;
9773;SDS011;4926;42.670;23.316;2023-10-08T09:14:17;11.75;;;3.88;;
9773;SDS011;4926;42.670;23.316;2023-10-08T09:16:45;6.90;;;4.25;;
9773;SDS011;4926;42.670;23.316;2023-10-08T09:19:12;6.80;;;4.40;;
9773;SDS011;4926;42.670;23.316;2023-10-08T09:21:43;8.18;;;4.75;;
9773;SDS011;4926;42.670;23.316;2023-10-08T09:24:17;7.47;;;4.50;;
9773;SDS011;4926;42.670;23.316;2023-10-08T09:26:45;8.40;;;4.90;;
9773;SDS011;4926;42.670;23.316;2023-10-08T09:29:14;10.70;;;4.55;;
9773;SDS011;4926;42.670;23.316;2023-10-08T09:31:52;6.55;;;4.50;;
9773;SDS011;4926;42.670;23.316;2023-10-08T09:34:21;8.07;;;4.43;;
9773;SDS011;4926;42.670;23.316;2023-10-08T09:36:47;5.47;;;4.15;;
9773;SDS011;4926;42.670;23.316;2023-10-08T09:39:14;12.05;;;4.50;;
9773;SDS011;4926;42.670;23.316;2023-10-08T09:41:48;7.28;;;4.80;;
9773;SDS011;4926;42.670;23.316;2023-10-08T09:44:19;4.97;;;3.90;;
9773;SDS011;4926;42.670;23.316;2023-10-08T09:46:51;5.80;;;3.97;;
9773;SDS011;4926;42.670;23.316;2023-10-08T09:49:24;9.93;;;4.22;;
9773;SDS011;4926;42.670;23.316;2023-10-08T09:51:59;8.88;;;4.05;;
9773;SDS011;4926;42.670;23.316;2023-10-08T09:54:30;8.95;;;4.20;;
9773;SDS011;4926;42.670;23.316;2023-10-08T09:57:05;8.90;;;3.88;;
9773;SDS011;4926;42.670;23.316;2023-10-08T09:59:32;8.00;;;4.43;;
9773;SDS011;4926;42.670;23.316;2023-10-08T10:02:02;8.50;;;4.53;;
9773;SDS011;4926;42.670;23.316;2023-10-08T10:04:34;9.25;;;4.70;;
9773;SDS011;4926;42.670;23.316;2023-10-08T10:07:09;5.05;;;3.97;;
9773;SDS011;4926;42.670;23.316;2023-10-08T10:09:37;8.65;;;4.45;;
9773;SDS011;4926;42.670;23.316;2023-10-08T10:12:07;6.13;;;4.40;;
9773;SDS011;4926;42.670;23.316;2023-10-08T10:14:44;6.28;;;4.60;;
9773;SDS011;4926;42.670;23.316;2023-10-08T10:17:15;5.93;;;4.45;;
9773;SDS011;4926;42.670;23.316;2023-10-08T10:19:49;4.78;;;3.92;;
9773;SDS011;4926;42.670;23.316;2023-10-08T10:22:26;6.65;;;3.88;;
9773;SDS011;4926;42.670;23.316;2023-10-08T10:24:54;5.50;;;4.15;;
9773;SDS011;4926;42.670;23.316;2023-10-08T10:27:25;5.65;;;3.83;;
9773;SDS011;4926;42.670;23.316;2023-10-08T10:29:53;18.42;;;4.43;;
9773;SDS011;4926;42.670;23.316;2023-10-08T10:32:34;13.68;;;4.22;;
9773;SDS011;4926;42.670;23.316;2023-10-08T10:35:05;14.82;;;3.67;;
9773;SDS011;4926;42.670;23.316;2023-10-08T10:37:49;14.90;;;3.67;;
9773;SDS011;4926;42.670;23.316;2023-10-08T10:40:22;7.03;;;3.75;;
9773;SDS011;4926;42.670;23.316;2023-10-08T10:42:55;11.30;;;3.67;;
9773;SDS011;4926;42.670;23.316;2023-10-08T10:45:22;7.80;;;3.85;;
9773;SDS011;4926;42.670;23.316;2023-10-08T10:48:07;7.30;;;3.83;;
9773;SDS011;4926;42.670;23.316;2023-10-08T10:50:46;6.43;;;3.55;;
9773;SDS011;4926;42.670;23.316;2023-10-08T10:53:14;5.10;;;3.22;;
9773;SDS011;4926;42.670;23.316;2023-10-08T10:55:44;8.25;;;3.90;;
9773;SDS011;4926;42.670;23.316;2023-10-08T10:58:24;8.15;;;3.67;;
9773;SDS011;4926;42.670;23.316;2023-10-08T11:00:50;5.20;;;3.47;;
9773;SDS011;4926;42.670;23.316;2023-10-08T11:03:28;8.13;;;4.07;;
9773;SDS011;4926;42.670;23.316;2023-10-08T11:05:58;6.38;;;4.00;;
9773;SDS011;4926;42.670;23.316;2023-10-08T11:08:31;6.22;;;3.83;;
9773;SDS011;4926;42.670;23.316;2023-10-08T11:11:00;7.45;;;3.83;;
9773;SDS011;4926;42.670;23.316;2023-10-08T11:13:32;9.45;;;3.88;;
9773;SDS011;4926;42.670;23.316;2023-10-08T11:16:05;9.90;;;3.58;;
9773;SDS011;4926;42.670;23.316;2023-10-08T11:18:40;7.95;;;3.15;;
9773;SDS011;4926;42.670;23.316;2023-10-08T11:21:11;8.27;;;3.65;;
9773;SDS011;4926;42.670;23.316;2023-10-08T11:23:49;8.48;;;3.67;;
9773;SDS011;4926;42.670;23.316;2023-10-08T11:26:25;12.38;;;3.72;;
9773;SDS011;4926;42.670;23.316;2023-10-08T11:29:04;9.52;;;3.80;;
9773;SDS011;4926;42.670;23.316;2023-10-08T11:31:39;8.65;;;3.30;;
9773;SDS011;4926;42.670;23.316;2023-10-08T11:34:10;6.78;;;3.50;;
9773;SDS011;4926;42.670;23.316;2023-10-08T11:36:38;11.57;;;3.40;;
9773;SDS011;4926;42.670;23.316;2023-10-08T11:39:18;14.32;;;3.65;;
9773;SDS011;4926;42.670;23.316;2023-10-08T11:41:55;9.45;;;3.53;;
9773;SDS011;4926;42.670;23.316;2023-10-08T11:44:22;13.05;;;4.07;;
9773;SDS011;4926;42.670;23.316;2023-10-08T11:46:55;9.73;;;3.97;;
9773;SDS011;4926;42.670;23.316;2023-10-08T11:49:31;10.32;;;3.80;;
9773;SDS011;4926;42.670;23.316;2023-10-08T11:52:01;9.73;;;3.40;;
9773;SDS011;4926;42.670;23.316;2023-10-08T11:54:31;21.02;;;4.45;;
9773;SDS011;4926;42.670;23.316;2023-10-08T11:56:58;17.42;;;4.43;;
9773;SDS011;4926;42.670;23.316;2023-10-08T11:59:27;7.90;;;4.22;;
9773;SDS011;4926;42.670;23.316;2023-10-08T12:02:04;10.90;;;4.20;;
9773;SDS011;4926;42.670;23.316;2023-10-08T12:04:33;9.80;;;3.60;;
9773;SDS011;4926;42.670;23.316;2023-10-08T12:07:01;9.95;;;3.70;;
9773;SDS011;4926;42.670;23.316;2023-10-08T12:09:32;8.10;;;3.92;;
9773;SDS011;4926;42.670;23.316;2023-10-08T12:12:03;6.53;;;3.72;;
9773;SDS011;4926;42.670;23.316;2023-10-08T12:14:34;7.50;;;4.07;;
9773;SDS011;4926;42.670;23.316;2023-10-08T12:17:04;8.20;;;3.83;;
9773;SDS011;4926;42.670;23.316;2023-10-08T12:19:37;9.77;;;4.30;;
9773;SDS011;4926;42.670;23.316;2023-10-08T12:22:05;6.50;;;3.80;;
9773;SDS011;4926;42.670;23.316;2023-10-08T12:24:33;7.63;;;3.72;;
9773;SDS011;4926;42.670;23.316;2023-10-08T12:27:03;14.98;;;4.38;;
9773;SDS011;4926;42.670;23.316;2023-10-08T12:29:36;48.22;;;6.65;;
9773;SDS011;4926;42.670;23.316;2023-10-08T12:32:03;19.30;;;4.45;;
9773;SDS011;4926;42.670;23.316;2023-10-08T12:34:34;10.57;;;3.80;;
9773;SDS011;4926;42.670;23.316;2023-10-08T12:37:02;16.60;;;4.50;;
9773;SDS011;4926;42.670;23.316;2023-10-08T12:39:32;9.57;;;4.28;;
9773;SDS011;4926;42.670;23.316;2023-10-08T12:42:11;11.98;;;3.95;;
9773;SDS011;4926;42.670;23.316;2023-10-08T12:44:37;9.38;;;4.10;;
9773;SDS011;4926;42.670;23.316;2023-10-08T12:47:07;11.73;;;4.03;;
9773;SDS011;4926;42.670;23.316;2023-10-08T12:49:34;12.85;;;3.90;;
9773;SDS011;4926;42.670;23.316;2023-10-08T12:52:02;10.40;;;4.00;;
9773;SDS011;4926;42.670;23.316;2023-10-08T12:54:29;10.32;;;3.83;;
9773;SDS011;4926;42.670;23.316;2023-10-08T12:56:58;10.65;;;4.65;;
9773;SDS011;4926;42.670;23.316;2023-10-08T12:59:34;22.88;;;4.53;;
9773;SDS011;4926;42.670;23.316;2023-10-08T13:02:00;13.57;;;4.50;;
9773;SDS011;4926;42.670;23.316;2023-10-08T13:04:32;21.45;;;4.07;;
9773;SDS011;4926;42.670;23.316;2023-10-08T13:07:07;13.25;;;3.35;;
9773;SDS011;4926;42.670;23.316;2023-10-08T13:09:37;16.65;;;4.22;;
9773;SDS011;4926;42.670;23.316;2023-10-08T13:12:11;20.45;;;3.55;;
9773;SDS011;4926;42.670;23.316;2023-10-08T13:14:40;13.70;;;4.07;;
9773;SDS011;4926;42.670;23.316;2023-10-08T13:17:09;12.38;;;3.53;;
9773;SDS011;4926;42.670;23.316;2023-10-08T13:19:37;14.57;;;4.45;;
9773;SDS011;4926;42.670;23.316;2023-10-08T13:22:03;13.35;;;3.70;;
9773;SDS011;4926;42.670;23.316;2023-10-08T13:24:33;10.63;;;3.88;;
9773;SDS011;4926;42.670;23.316;2023-10-08T13:27:00;9.68;;;3.78;;
9773;SDS011;4926;42.670;23.316;2023-10-08T13:29:27;10.50;;;3.40;;
9773;SDS011;4926;42.670;23.316;2023-10-08T13:31:58;9.23;;;3.67;;
9773;SDS011;4926;42.670;23.316;2023-10-08T13:34:24;12.25;;;3.70;;
9773;SDS011;4926;42.670;23.316;2023-10-08T13:36:52;9.73;;;3.50;;
9773;SDS011;4926;42.670;23.316;2023-10-08T13:39:19;8.85;;;3.30;;
9773;SDS011;4926;42.670;23.316;2023-10-08T13:41:47;14.35;;;3.83;;
9773;SDS011;4926;42.670;23.316;2023-10-08T13:44:14;12.52;;;3.50;;
9773;SDS011;4926;42.670;23.316;2023-10-08T13:46:43;9.88;;;3.58;;
9773;SDS011;4926;42.670;23.316;2023-10-08T13:49:13;7.95;;;3.58;;
9773;SDS011;4926;42.670;23.316;2023-10-08T13:51:41;7.18;;;3.25;;
9773;SDS011;4926;42.670;23.316;2023-10-08T13:54:09;12.60;;;3.45;;
9773;SDS011;4926;42.670;23.316;2023-10-08T13:56:38;7.43;;;3.20;;
9773;SDS011;4926;42.670;23.316;2023-10-08T13:59:14;11.60;;;3.67;;
9773;SDS011;4926;42.670;23.316;2023-10-08T14:01:42;13.50;;;3.70;;
9773;SDS011;4926;42.670;23.316;2023-10-08T14:04:11;6.32;;;3.42;;
9773;SDS011;4926;42.670;23.316;2023-10-08T14:06:42;6.80;;;3.58;;
9773;SDS011;4926;42.670;23.316;2023-10-08T14:09:13;11.45;;;3.72;;
9773;SDS011;4926;42.670;23.316;2023-10-08T14:11:46;10.73;;;3.92;;
9773;SDS011;4926;42.670;23.316;2023-10-08T14:14:14;8.93;;;4.03;;
9773;SDS011;4926;42.670;23.316;2023-10-08T14:16:43;8.15;;;3.67;;
9773;SDS011;4926;42.670;23.316;2023-10-08T14:19:12;10.05;;;3.67;;
9773;SDS011;4926;42.670;23.316;2023-10-08T14:21:40;13.40;;;4.00;;
9773;SDS011;4926;42.670;23.316;2023-10-08T14:24:15;11.57;;;3.50;;
9773;SDS011;4926;42.670;23.316;2023-10-08T14:26:42;11.20;;;3.65;;
9773;SDS011;4926;42.670;23.316;2023-10-08T14:29:09;12.38;;;3.50;;
9773;SDS011;4926;42.670;23.316;2023-10-08T14:31:41;7.50;;;3.08;;
9773;SDS011;4926;42.670;23.316;2023-10-08T14:34:12;15.90;;;3.63;;
9773;SDS011;4926;42.670;23.316;2023-10-08T14:37:08;11.70;;;3.65;;
9773;SDS011;4926;42.670;23.316;2023-10-08T14:39:52;16.45;;;3.90;;
9773;SDS011;4926;42.670;23.316;2023-10-08T14:42:37;19.25;;;4.28;;
9773;SDS011;4926;42.670;23.316;2023-10-08T14:45:23;33.08;;;5.40;;
9773;SDS011;4926;42.670;23.316;2023-10-08T14:47:53;9.70;;;4.00;;
9773;SDS011;4926;42.670;23.316;2023-10-08T14:50:21;15.68;;;3.40;;
9773;SDS011;4926;42.670;23.316;2023-10-08T14:52:48;25.15;;;4.15;;
9773;SDS011;4926;42.670;23.316;2023-10-08T14:55:15;14.70;;;4.55;;
9773;SDS011;4926;42.670;23.316;2023-10-08T14:57:42;23.15;;;3.97;;
9773;SDS011;4926;42.670;23.316;2023-10-08T15:00:09;14.07;;;3.60;;
9773;SDS011;4926;42.670;23.316;2023-10-08T15:02:37;15.35;;;3.80;;
9773;SDS011;4926;42.670;23.316;2023-10-08T15:05:06;17.45;;;4.35;;
9773;SDS011;4926;42.670;23.316;2023-10-08T15:07:33;11.02;;;3.55;;
9773;SDS011;4926;42.670;23.316;2023-10-08T15:10:01;10.77;;;3.60;;
9773;SDS011;4926;42.670;23.316;2023-10-08T15:12:28;15.98;;;4.47;;
9773;SDS011;4926;42.670;23.316;2023-10-08T15:14:59;12.40;;;3.70;;
9773;SDS011;4926;42.670;23.316;2023-10-08T15:17:38;14.90;;;4.03;;
9773;SDS011;4926;42.670;23.316;2023-10-08T15:20:08;13.30;;;4.03;;
9773;SDS011;4926;42.670;23.316;2023-10-08T15:22:39;13.00;;;4.32;;
9773;SDS011;4926;42.670;23.316;2023-10-08T15:25:08;11.63;;;3.50;;
9773;SDS011;4926;42.670;23.316;2023-10-08T15:27:36;12.55;;;3.78;;